createdAt,value
2019-03-21T00:04:09.183Z,9.67
2019-03-21T00:09:18.753Z,9.48
2019-03-21T00:15:00.314Z,9.50
2019-03-21T00:20:10.741Z,9.38
2019-03-21T00:25:20.221Z,9.17
2019-03-21T00:30:28.372Z,10.20
2019-03-21T00:35:35.640Z,10.27
2019-03-21T00:40:44.204Z,10.10
2019-03-21T00:45:51.211Z,10.00
2019-03-21T00:50:58.078Z,10.93
2019-03-21T00:56:04.891Z,10.40
2019-03-21T01:01:11.957Z,9.63
2019-03-21T01:06:18.994Z,9.50
2019-03-21T01:11:26.064Z,11.10
2019-03-21T01:16:32.965Z,10.97
2019-03-21T01:21:40.226Z,10.40
2019-03-21T01:26:47.237Z,11.08
2019-03-21T01:31:54.649Z,10.60
2019-03-21T01:37:01.592Z,10.87
2019-03-21T01:42:08.572Z,9.57
2019-03-21T01:47:15.659Z,9.10
2019-03-21T01:52:23.848Z,10.25
2019-03-21T01:57:31.772Z,11.03
2019-03-21T02:02:38.603Z,10.60
2019-03-21T02:07:45.513Z,11.60
2019-03-21T02:12:52.358Z,11.57
2019-03-21T02:17:59.159Z,11.57
2019-03-21T02:23:06.234Z,11.53
2019-03-21T02:28:13.379Z,11.60
2019-03-21T02:33:23.760Z,11.03
2019-03-21T02:38:30.580Z,12.10
2019-03-21T02:43:38.021Z,12.00
2019-03-21T02:48:44.806Z,11.90
2019-03-21T02:53:51.843Z,12.33
2019-03-21T02:58:59.029Z,11.83
2019-03-21T03:04:06.324Z,11.43
2019-03-21T03:09:15.037Z,13.03
2019-03-21T03:14:21.933Z,13.23
2019-03-21T03:19:28.783Z,13.60
2019-03-21T03:24:37.113Z,13.20
2019-03-21T03:29:43.991Z,12.97
2019-03-21T03:34:50.843Z,13.23
2019-03-21T03:39:57.854Z,13.83
2019-03-21T03:45:05.115Z,13.67
2019-03-21T03:50:27.052Z,13.20
2019-03-21T03:55:34.289Z,12.65
2019-03-21T04:00:41.355Z,12.57
2019-03-21T04:05:48.304Z,12.50
2019-03-21T04:10:55.452Z,12.98
2019-03-21T04:16:02.233Z,13.45
2019-03-21T04:21:09.354Z,14.13
2019-03-21T04:26:20.262Z,14.87
2019-03-21T04:31:27.287Z,13.53
2019-03-21T04:36:34.158Z,14.47
2019-03-21T04:41:43.593Z,15.00
2019-03-21T04:46:50.504Z,14.17
2019-03-21T04:51:57.273Z,14.77
2019-03-21T04:57:04.336Z,14.25
2019-03-21T05:02:11.267Z,14.28
2019-03-21T05:07:19.155Z,13.70
2019-03-21T05:12:26.063Z,13.53
2019-03-21T05:17:33.313Z,13.35
2019-03-21T05:22:41.223Z,14.77
2019-03-21T05:27:48.120Z,13.62
2019-03-21T05:32:55.064Z,16.90
2019-03-21T05:38:02.022Z,19.03
2019-03-21T05:43:12.671Z,19.57
2019-03-21T05:48:19.544Z,18.60
2019-03-21T05:53:26.368Z,16.93
2019-03-21T05:58:33.280Z,16.23
2019-03-21T06:03:53.141Z,16.03
2019-03-21T06:09:00.200Z,17.32
2019-03-21T06:14:07.417Z,18.27
2019-03-21T06:19:40.844Z,17.87
2019-03-21T06:25:18.673Z,18.97
2019-03-21T06:30:25.548Z,21.23
2019-03-21T06:35:32.388Z,22.43
2019-03-21T06:40:39.413Z,22.07
2019-03-21T06:45:48.074Z,23.95
2019-03-21T06:50:55.816Z,26.57
2019-03-21T06:56:02.676Z,27.13
2019-03-21T07:01:09.710Z,27.60
2019-03-21T07:06:18.422Z,28.53
2019-03-21T07:11:25.266Z,26.90
2019-03-21T07:16:32.269Z,29.27
2019-03-21T07:21:39.113Z,28.40
2019-03-21T07:26:46.177Z,27.20
2019-03-21T07:31:53.316Z,29.53
2019-03-21T07:37:00.242Z,29.17
2019-03-21T07:42:07.383Z,29.77
2019-03-21T07:47:14.217Z,29.00
2019-03-21T07:52:21.254Z,27.57
2019-03-21T07:57:28.228Z,26.77
2019-03-21T08:02:36.440Z,26.77
2019-03-21T08:07:43.676Z,27.70
2019-03-21T08:12:51.279Z,27.23
2019-03-21T08:17:58.187Z,27.70
2019-03-21T08:23:05.095Z,26.63
2019-03-21T08:28:11.939Z,27.42
2019-03-21T08:33:18.940Z,26.85
2019-03-21T08:38:25.914Z,25.90
2019-03-21T08:43:32.816Z,25.80
2019-03-21T08:48:39.735Z,24.27
2019-03-21T08:53:48.412Z,23.93
2019-03-21T08:58:55.842Z,22.60
2019-03-21T09:04:02.679Z,22.00
2019-03-21T09:09:10.408Z,22.73
2019-03-21T09:14:19.027Z,22.07
2019-03-21T09:19:25.994Z,21.57
2019-03-21T09:24:32.983Z,21.37
2019-03-21T09:29:40.083Z,20.67
2019-03-21T09:34:47.009Z,20.87
2019-03-21T09:39:54.115Z,20.65
2019-03-21T09:45:01.066Z,19.73
2019-03-21T09:50:08.791Z,21.43
2019-03-21T09:55:16.046Z,20.00
2019-03-21T10:00:31.721Z,19.87
2019-03-21T10:05:38.566Z,19.57
2019-03-21T10:10:45.607Z,21.03
2019-03-21T10:15:52.422Z,19.27
2019-03-21T10:20:59.339Z,19.83
2019-03-21T10:26:06.377Z,19.23
2019-03-21T10:31:13.383Z,19.25
2019-03-21T10:36:20.241Z,18.80
2019-03-21T10:41:27.258Z,19.10
2019-03-21T10:46:34.194Z,19.07
2019-03-21T10:51:41.140Z,20.13
2019-03-21T10:56:48.092Z,21.40
2019-03-21T11:02:06.624Z,19.97
2019-03-21T11:07:27.281Z,19.07
2019-03-21T11:12:34.272Z,19.70
2019-03-21T11:17:41.142Z,19.20
2019-03-21T11:22:48.223Z,19.60
2019-03-21T11:27:55.073Z,19.80
2019-03-21T11:33:03.217Z,18.80
2019-03-21T11:38:10.231Z,18.00
2019-03-21T11:43:18.773Z,18.15
2019-03-21T11:48:25.714Z,18.43
2019-03-21T11:53:32.776Z,19.90
2019-03-21T11:58:39.696Z,19.43
2019-03-21T12:03:46.655Z,20.60
2019-03-21T12:08:53.525Z,17.53
2019-03-21T12:14:00.692Z,16.70
2019-03-21T12:19:07.786Z,16.37
2019-03-21T12:24:14.726Z,17.70
2019-03-21T12:29:22.080Z,16.33
2019-03-21T12:34:29.025Z,16.37
2019-03-21T12:39:37.978Z,17.63
2019-03-21T12:44:44.626Z,16.57
2019-03-21T12:49:51.770Z,15.63
2019-03-21T12:54:58.748Z,16.87
2019-03-21T13:00:08.022Z,16.07
2019-03-21T13:05:19.169Z,15.80
2019-03-21T13:10:26.226Z,15.03
2019-03-21T13:15:34.368Z,16.00
2019-03-21T13:20:41.463Z,16.67
2019-03-21T13:25:48.397Z,15.57
2019-03-21T13:30:56.509Z,15.30
2019-03-21T13:36:03.659Z,16.40
2019-03-21T13:41:10.600Z,16.63
2019-03-21T13:46:17.389Z,16.90
2019-03-21T13:51:24.426Z,16.47
2019-03-21T13:56:37.917Z,17.27
2019-03-21T14:01:40.328Z,17.13
2019-03-21T14:06:47.373Z,15.27
2019-03-21T14:11:54.281Z,15.97
2019-03-21T14:17:01.261Z,15.43
2019-03-21T14:22:08.454Z,15.30
2019-03-21T14:27:15.683Z,16.85
2019-03-21T14:32:22.780Z,16.43
2019-03-21T14:37:29.579Z,16.30
2019-03-21T14:42:36.581Z,17.30
2019-03-21T14:47:43.784Z,18.63
2019-03-21T14:52:50.608Z,17.70
2019-03-21T14:58:00.695Z,17.80
2019-03-21T15:03:07.576Z,16.90
2019-03-21T15:08:14.443Z,18.37
2019-03-21T15:13:21.301Z,20.43
2019-03-21T15:18:28.230Z,20.37
2019-03-21T15:23:40.579Z,20.67
2019-03-21T15:28:46.576Z,20.53
2019-03-21T15:33:53.456Z,19.10
2019-03-21T15:39:00.568Z,21.43
2019-03-21T15:44:08.157Z,20.27
2019-03-21T15:49:15.044Z,19.67
2019-03-21T15:54:21.959Z,20.23
2019-03-21T15:59:29.104Z,21.80
2019-03-21T16:04:38.036Z,18.93
2019-03-21T16:09:45.083Z,19.53
2019-03-21T16:14:52.969Z,19.63
2019-03-21T16:19:59.919Z,18.33
2019-03-21T16:25:07.961Z,18.10
2019-03-21T16:30:15.258Z,19.50
2019-03-21T16:35:22.397Z,18.62
2019-03-21T16:40:29.322Z,19.57
2019-03-21T16:45:36.535Z,19.50
2019-03-21T16:50:43.501Z,20.23
2019-03-21T16:55:50.385Z,21.85
2019-03-21T17:00:57.312Z,20.73
2019-03-21T17:06:04.214Z,21.97
2019-03-21T17:11:11.128Z,22.97
2019-03-21T17:16:19.243Z,21.97
2019-03-21T17:21:26.237Z,23.42
2019-03-21T17:26:33.155Z,23.18
2019-03-21T17:31:40.321Z,21.93
2019-03-21T17:36:47.319Z,22.32
2019-03-21T17:41:54.221Z,22.60
2019-03-21T17:47:01.220Z,24.83
2019-03-21T17:52:08.098Z,28.97
2019-03-21T17:57:15.111Z,32.90
2019-03-21T18:02:22.161Z,32.70
2019-03-21T18:07:29.189Z,39.60
2019-03-21T18:12:36.588Z,33.50
2019-03-21T18:17:44.733Z,36.27
2019-03-21T18:22:51.949Z,33.70
2019-03-21T18:27:58.828Z,37.03
2019-03-21T18:33:06.112Z,37.27
2019-03-21T18:38:13.099Z,36.80
2019-03-21T18:43:20.891Z,39.10
2019-03-21T18:48:28.003Z,37.63
2019-03-21T18:53:34.946Z,36.47
2019-03-21T18:58:41.987Z,39.78
2019-03-21T19:03:48.881Z,40.63
2019-03-21T19:08:56.047Z,41.33
2019-03-21T19:14:02.891Z,40.53
2019-03-21T19:19:09.753Z,41.70
2019-03-21T19:24:16.710Z,43.00
2019-03-21T19:29:23.769Z,46.20
2019-03-21T19:34:32.160Z,49.60
2019-03-21T19:39:40.366Z,47.27
2019-03-21T19:44:47.298Z,48.20
2019-03-21T19:49:54.190Z,50.37
2019-03-21T19:55:01.103Z,52.10
2019-03-21T20:00:10.458Z,52.62
2019-03-21T20:05:17.484Z,52.83
2019-03-21T20:10:24.554Z,54.70
2019-03-21T20:15:31.471Z,53.87
2019-03-21T20:20:38.542Z,54.90
2019-03-21T20:25:45.767Z,53.17
2019-03-21T20:30:52.569Z,55.97
2019-03-21T20:35:59.426Z,55.43
2019-03-21T20:41:06.644Z,55.30
2019-03-21T20:46:13.540Z,54.00
2019-03-21T20:51:20.480Z,54.83
2019-03-21T20:56:27.377Z,55.27
2019-03-21T21:01:34.238Z,57.70
2019-03-21T21:06:41.231Z,56.33
2019-03-21T21:11:48.369Z,57.83
2019-03-21T21:16:55.287Z,59.07
2019-03-21T21:22:02.222Z,60.93
2019-03-21T21:27:09.171Z,56.25
2019-03-21T21:32:17.315Z,58.98
2019-03-21T21:37:24.407Z,56.88
2019-03-21T21:42:31.274Z,59.17
2019-03-21T21:47:38.784Z,62.05
2019-03-21T21:52:46.049Z,61.83
2019-03-21T21:57:52.932Z,58.60
2019-03-21T22:02:59.864Z,60.93
2019-03-21T22:08:06.677Z,66.17
2019-03-21T22:13:13.683Z,64.80
2019-03-21T22:18:20.580Z,62.50
2019-03-21T22:23:27.727Z,62.00
2019-03-21T22:28:35.739Z,57.03
2019-03-21T22:33:42.858Z,60.03
2019-03-21T22:38:50.239Z,61.50
2019-03-21T22:43:57.043Z,59.53
2019-03-21T22:49:03.888Z,57.80
2019-03-21T22:54:10.935Z,60.00
2019-03-21T22:59:18.092Z,58.73
2019-03-21T23:04:24.925Z,58.57
2019-03-21T23:09:31.702Z,57.90
2019-03-21T23:14:38.727Z,56.77
2019-03-21T23:19:45.574Z,57.07
2019-03-21T23:24:52.539Z,55.43
2019-03-21T23:29:59.503Z,55.03
2019-03-21T23:35:07.038Z,54.70
2019-03-21T23:40:14.653Z,55.50
2019-03-21T23:45:22.042Z,55.27
2019-03-21T23:50:28.979Z,55.38
2019-03-21T23:55:36.405Z,53.80
